createdAt,value
2022-10-12T00:00:48.972Z,102287.80
2022-10-12T00:02:10.113Z,102283.70
2022-10-12T00:03:13.416Z,102288.90
2022-10-12T00:04:16.575Z,102291.92
2022-10-12T00:05:19.417Z,102287.66
2022-10-12T00:06:23.895Z,102291.75
2022-10-12T00:07:26.874Z,102289.77
2022-10-12T00:08:29.789Z,102290.69
2022-10-12T00:09:32.861Z,102291.02
2022-10-12T00:10:40.196Z,102293.23
2022-10-12T00:11:43.100Z,102296.05
2022-10-12T00:12:46.210Z,102298.19
2022-10-12T00:13:49.310Z,102295.73
2022-10-12T00:14:52.219Z,102295.40
2022-10-12T00:15:55.170Z,102296.12
2022-10-12T00:16:58.273Z,102295.10
2022-10-12T00:18:01.248Z,102294.50
2022-10-12T00:19:04.231Z,102296.52
2022-10-12T00:20:07.510Z,102296.31
2022-10-12T00:21:13.006Z,102301.44
2022-10-12T00:22:16.123Z,102302.20
2022-10-12T00:23:19.042Z,102300.94
2022-10-12T00:24:22.000Z,102306.75
2022-10-12T00:25:24.950Z,102306.13
2022-10-12T00:26:29.020Z,102305.98
2022-10-12T00:27:31.894Z,102309.75
2022-10-12T00:28:35.193Z,102306.70
2022-10-12T00:29:38.100Z,102303.21
2022-10-12T00:30:41.448Z,102302.62
2022-10-12T00:31:44.281Z,102303.79
2022-10-12T00:32:47.155Z,102306.02
2022-10-12T00:33:50.097Z,102306.17
2022-10-12T00:34:52.876Z,102304.25
2022-10-12T00:35:56.139Z,102302.75
2022-10-12T00:36:58.962Z,102304.31
2022-10-12T00:38:01.756Z,102300.43
2022-10-12T00:39:05.835Z,102298.45
2022-10-12T00:40:09.089Z,102304.83
2022-10-12T00:41:12.572Z,102302.41
2022-10-12T00:42:15.670Z,102308.58
2022-10-12T00:43:38.090Z,102308.20
2022-10-12T00:44:41.069Z,102308.34
2022-10-12T00:45:43.907Z,102310.08
2022-10-12T00:46:47.014Z,102315.10
2022-10-12T00:47:55.896Z,102313.43
2022-10-12T00:49:10.859Z,102314.30
2022-10-12T00:50:34.223Z,102313.86
2022-10-12T00:51:37.844Z,102310.69
2022-10-12T00:52:44.726Z,102310.28
2022-10-12T00:53:50.927Z,102312.15
2022-10-12T00:54:54.366Z,102308.33
2022-10-12T00:56:02.273Z,102312.29
2022-10-12T00:57:06.062Z,102308.56
2022-10-12T00:58:09.265Z,102309.64
2022-10-12T00:59:14.540Z,102309.10
2022-10-12T01:00:18.367Z,102311.77
2022-10-12T01:01:21.887Z,102310.73
2022-10-12T01:02:26.284Z,102311.71
2022-10-12T01:03:29.218Z,102313.49
2022-10-12T01:04:33.061Z,102312.79
2022-10-12T01:05:36.479Z,102314.52
2022-10-12T01:06:39.357Z,102311.81
2022-10-12T01:07:42.182Z,102313.52
2022-10-12T01:08:46.166Z,102316.13
2022-10-12T01:09:49.083Z,102318.61
2022-10-12T01:10:52.007Z,102318.06
2022-10-12T01:11:56.299Z,102318.98
2022-10-12T01:12:59.746Z,102320.58
2022-10-12T01:14:02.832Z,102320.80
2022-10-12T01:15:06.122Z,102318.29
2022-10-12T01:16:15.377Z,102317.01
2022-10-12T01:17:36.737Z,102318.35
2022-10-12T01:18:48.475Z,102317.91
2022-10-12T01:20:06.563Z,102315.91
2022-10-12T01:21:09.590Z,102318.48
2022-10-12T01:22:15.899Z,102318.52
2022-10-12T01:23:19.036Z,102313.84
2022-10-12T01:24:34.623Z,102316.84
2022-10-12T01:25:40.429Z,102312.62
2022-10-12T01:26:52.825Z,102317.55
2022-10-12T01:28:02.973Z,102319.65
2022-10-12T01:29:14.942Z,102318.67
2022-10-12T01:30:29.923Z,102317.73
2022-10-12T01:31:49.548Z,102316.89
2022-10-12T01:32:55.225Z,102315.98
2022-10-12T01:34:00.124Z,102316.81
2022-10-12T01:35:10.314Z,102314.07
2022-10-12T01:36:17.337Z,102317.39
2022-10-12T01:37:39.274Z,102317.86
2022-10-12T01:39:00.992Z,102319.27
2022-10-12T01:40:07.914Z,102321.46
2022-10-12T01:41:15.506Z,102318.86
2022-10-12T01:42:23.623Z,102320.91
2022-10-12T01:43:37.036Z,102326.44
2022-10-12T01:44:42.814Z,102323.36
2022-10-12T01:45:46.098Z,102324.49
2022-10-12T01:46:49.384Z,102327.05
2022-10-12T01:47:53.822Z,102327.15
2022-10-12T01:49:00.699Z,102327.45
2022-10-12T01:50:05.749Z,102325.38
2022-10-12T01:51:10.304Z,102324.27
2022-10-12T01:52:18.841Z,102323.77
2022-10-12T01:53:41.788Z,102318.56
2022-10-12T01:55:00.298Z,102317.12
2022-10-12T01:56:09.270Z,102316.36
2022-10-12T01:57:29.837Z,102313.60
2022-10-12T01:58:38.201Z,102313.15
2022-10-12T01:59:52.033Z,102309.18
2022-10-12T02:01:01.039Z,102308.98
2022-10-12T02:02:14.613Z,102311.16
2022-10-12T02:03:24.217Z,102309.52
2022-10-12T02:04:30.116Z,102313.27
2022-10-12T02:05:38.618Z,102311.30
2022-10-12T02:06:46.287Z,102314.55
2022-10-12T02:07:52.348Z,102315.21
2022-10-12T02:08:59.863Z,102313.33
2022-10-12T02:10:03.256Z,102311.27
2022-10-12T02:11:06.219Z,102312.40
2022-10-12T02:12:18.545Z,102313.84
2022-10-12T02:13:23.648Z,102310.59
2022-10-12T02:14:30.042Z,102312.56
2022-10-12T02:15:34.495Z,102312.73
2022-10-12T02:16:41.123Z,102313.11
2022-10-12T02:17:47.577Z,102315.69
2022-10-12T02:18:53.148Z,102315.65
2022-10-12T02:19:58.020Z,102314.95
2022-10-12T02:21:01.576Z,102312.96
2022-10-12T02:22:05.817Z,102313.88
2022-10-12T02:23:10.339Z,102314.94
2022-10-12T02:24:15.065Z,102318.30
2022-10-12T02:25:19.963Z,102317.73
2022-10-12T02:26:23.456Z,102317.89
2022-10-12T02:27:27.048Z,102317.61
2022-10-12T02:28:30.976Z,102315.39
2022-10-12T02:29:38.656Z,102319.30
2022-10-12T02:32:09.355Z,102320.40
2022-10-12T02:33:21.770Z,102320.61
2022-10-12T02:34:37.096Z,102318.70
2022-10-12T02:35:46.967Z,102318.23
2022-10-12T02:36:56.963Z,102318.49
2022-10-12T02:38:02.439Z,102322.81
2022-10-12T02:39:25.817Z,102320.58
2022-10-12T02:40:37.704Z,102319.69
2022-10-12T02:41:49.395Z,102315.81
2022-10-12T02:43:09.981Z,102314.84
2022-10-12T02:44:16.416Z,102315.95
2022-10-12T02:45:19.682Z,102318.84
2022-10-12T02:46:24.450Z,102314.80
2022-10-12T02:47:29.005Z,102318.54
2022-10-12T02:48:32.059Z,102317.74
2022-10-12T02:49:36.349Z,102317.30
2022-10-12T02:50:39.569Z,102321.35
2022-10-12T02:51:43.820Z,102321.65
2022-10-12T02:52:47.035Z,102324.34
2022-10-12T02:53:50.540Z,102324.14
2022-10-12T02:54:53.631Z,102325.54
2022-10-12T02:56:11.199Z,102323.73
2022-10-12T02:57:14.010Z,102328.92
2022-10-12T02:58:17.656Z,102331.27
2022-10-12T02:59:20.502Z,102332.58
2022-10-12T03:00:23.609Z,102334.15
2022-10-12T03:01:27.026Z,102330.83
2022-10-12T03:02:30.053Z,102333.75
2022-10-12T03:03:32.973Z,102330.59
2022-10-12T03:04:35.825Z,102333.21
2022-10-12T03:05:38.883Z,102332.27
2022-10-12T03:06:42.755Z,102334.31
2022-10-12T03:07:46.405Z,102335.73
2022-10-12T03:08:49.195Z,102338.00
2022-10-12T03:09:52.478Z,102334.99
2022-10-12T03:10:55.456Z,102337.40
2022-10-12T03:11:58.234Z,102338.58
2022-10-12T03:13:01.140Z,102340.25
2022-10-12T03:14:04.565Z,102342.70
2022-10-12T03:15:07.464Z,102342.47
2022-10-12T03:16:11.683Z,102345.85
2022-10-12T03:17:14.501Z,102342.47
2022-10-12T03:18:17.436Z,102343.74
2022-10-12T03:19:20.194Z,102346.74
2022-10-12T03:20:23.245Z,102350.52
2022-10-12T03:21:26.277Z,102346.61
2022-10-12T03:22:29.111Z,102349.16
2022-10-12T03:23:32.016Z,102348.88
2022-10-12T03:24:35.088Z,102349.35
2022-10-12T03:25:38.002Z,102348.61
2022-10-12T03:26:41.277Z,102348.11
2022-10-12T03:27:44.396Z,102345.46
2022-10-12T03:28:47.486Z,102343.04
2022-10-12T03:29:50.413Z,102341.42
2022-10-12T03:30:53.297Z,102340.09
2022-10-12T03:31:56.567Z,102337.64
2022-10-12T03:32:59.378Z,102338.48
2022-10-12T03:34:02.419Z,102336.88
2022-10-12T03:35:05.459Z,102338.01
2022-10-12T03:36:09.790Z,102337.14
2022-10-12T03:37:12.636Z,102337.56
2022-10-12T03:38:15.950Z,102338.71
2022-10-12T03:39:19.287Z,102339.23
2022-10-12T03:40:22.187Z,102338.63
2022-10-12T03:41:25.059Z,102339.16
2022-10-12T03:42:28.593Z,102336.44
2022-10-12T03:43:31.441Z,102335.46
2022-10-12T03:44:34.835Z,102333.73
2022-10-12T03:45:38.153Z,102332.54
2022-10-12T03:46:41.041Z,102337.70
2022-10-12T03:47:44.243Z,102336.80
2022-10-12T03:48:47.120Z,102339.17
2022-10-12T03:49:50.125Z,102339.29
2022-10-12T03:50:53.300Z,102338.68
2022-10-12T03:51:56.150Z,102342.23
2022-10-12T03:52:59.262Z,102342.92
2022-10-12T03:54:02.342Z,102344.48
2022-10-12T03:55:05.431Z,102340.73
2022-10-12T03:56:08.257Z,102343.80
2022-10-12T03:57:11.081Z,102339.50
2022-10-12T03:58:14.607Z,102342.60
2022-10-12T03:59:17.480Z,102343.16
2022-10-12T04:00:22.538Z,102344.04
2022-10-12T04:01:25.930Z,102348.04
2022-10-12T04:02:29.042Z,102349.70
2022-10-12T04:03:32.098Z,102348.05
2022-10-12T04:04:35.513Z,102353.33
2022-10-12T04:05:40.044Z,102351.19
2022-10-12T04:06:42.857Z,102352.92
2022-10-12T04:07:45.731Z,102350.52
2022-10-12T04:08:50.980Z,102350.81
2022-10-12T04:09:54.083Z,102352.21
2022-10-12T04:10:56.955Z,102356.69
2022-10-12T04:12:00.347Z,102354.99
2022-10-12T04:13:03.278Z,102359.09
2022-10-12T04:14:06.541Z,102356.52
2022-10-12T04:15:10.180Z,102358.86
2022-10-12T04:16:13.537Z,102358.86
2022-10-12T04:17:16.931Z,102368.11
2022-10-12T04:18:19.808Z,102367.95
2022-10-12T04:19:22.828Z,102366.13
2022-10-12T04:20:25.869Z,102367.70
2022-10-12T04:21:30.849Z,102375.69
2022-10-12T04:22:34.742Z,102371.00
2022-10-12T04:23:37.503Z,102371.23
2022-10-12T04:24:40.418Z,102373.80
2022-10-12T04:25:43.238Z,102372.14
2022-10-12T04:26:46.154Z,102373.88
2022-10-12T04:27:48.988Z,102375.12
2022-10-12T04:28:51.895Z,102374.66
2022-10-12T04:29:55.512Z,102377.34
2022-10-12T04:30:58.677Z,102375.73
2022-10-12T04:32:01.522Z,102379.17
2022-10-12T04:33:04.678Z,102378.08
2022-10-12T04:34:08.981Z,102377.54
2022-10-12T04:35:12.162Z,102379.11
2022-10-12T04:37:07.946Z,102376.73
2022-10-12T04:38:10.727Z,102382.92
2022-10-12T04:39:13.914Z,102386.71
2022-10-12T04:40:16.951Z,102384.41
2022-10-12T04:41:20.386Z,102388.39
2022-10-12T04:42:23.219Z,102386.79
2022-10-12T04:43:26.094Z,102389.23
2022-10-12T04:44:32.133Z,102390.04
2022-10-12T04:45:35.597Z,102392.46
2022-10-12T04:46:38.419Z,102389.61
2022-10-12T04:47:41.380Z,102391.92
2022-10-12T04:48:44.224Z,102392.48
2022-10-12T04:49:47.044Z,102396.62
2022-10-12T04:50:50.034Z,102396.41
2022-10-12T04:51:52.871Z,102395.98
2022-10-12T04:52:55.767Z,102395.62
2022-10-12T04:53:58.600Z,102398.59
2022-10-12T04:55:01.564Z,102399.02
2022-10-12T04:56:05.873Z,102396.64
2022-10-12T04:57:08.787Z,102398.73
2022-10-12T04:58:11.643Z,102400.27
2022-10-12T04:59:14.511Z,102398.96
2022-10-12T05:00:17.678Z,102400.06
2022-10-12T05:01:20.704Z,102403.52
2022-10-12T05:02:23.650Z,102403.33
2022-10-12T05:03:26.550Z,102402.61
2022-10-12T05:04:29.558Z,102404.81
2022-10-12T05:05:34.471Z,102404.02
2022-10-12T05:06:37.612Z,102402.46
2022-10-12T05:07:40.801Z,102401.73
2022-10-12T05:08:44.083Z,102399.05
2022-10-12T05:09:46.959Z,102399.98
2022-10-12T05:10:49.772Z,102399.41
2022-10-12T05:11:52.758Z,102399.55
2022-10-12T05:12:55.647Z,102400.41
2022-10-12T05:13:58.971Z,102399.20
2022-10-12T05:15:01.871Z,102400.57
2022-10-12T05:16:04.752Z,102398.19
2022-10-12T05:17:07.969Z,102395.21
2022-10-12T05:18:11.245Z,102398.95
2022-10-12T05:19:14.074Z,102397.84
2022-10-12T05:20:16.934Z,102397.30
2022-10-12T05:21:19.782Z,102400.09
2022-10-12T05:22:22.843Z,102399.46
2022-10-12T05:23:25.956Z,102399.98
2022-10-12T05:24:29.087Z,102399.74
2022-10-12T05:25:32.489Z,102402.69
2022-10-12T05:26:35.301Z,102403.05
2022-10-12T05:27:38.783Z,102403.48
2022-10-12T05:28:41.935Z,102402.26
2022-10-12T05:29:44.904Z,102403.96
2022-10-12T05:30:51.481Z,102403.36
2022-10-12T05:31:54.377Z,102406.27
2022-10-12T05:32:57.467Z,102401.98
2022-10-12T05:34:00.315Z,102407.61
2022-10-12T05:35:03.678Z,102410.29
2022-10-12T05:36:06.837Z,102409.77
2022-10-12T05:37:09.819Z,102404.86
2022-10-12T05:38:12.877Z,102410.80
2022-10-12T05:39:15.690Z,102408.63
2022-10-12T05:40:18.733Z,102410.00
2022-10-12T05:41:21.520Z,102412.31
2022-10-12T05:42:24.539Z,102412.75
2022-10-12T05:43:27.816Z,102413.05
2022-10-12T05:44:30.601Z,102409.94
2022-10-12T05:45:33.838Z,102407.48
2022-10-12T05:46:36.664Z,102406.59
2022-10-12T05:47:40.402Z,102404.08
2022-10-12T05:48:43.707Z,102405.02
2022-10-12T05:49:46.514Z,102401.48
2022-10-12T05:50:52.120Z,102406.30
2022-10-12T05:51:54.964Z,102403.59
2022-10-12T05:52:57.806Z,102406.67
2022-10-12T05:54:04.564Z,102402.95
2022-10-12T05:55:11.125Z,102401.69
2022-10-12T05:56:14.178Z,102405.14
2022-10-12T05:57:17.062Z,102401.95
2022-10-12T05:58:19.943Z,102410.00
2022-10-12T05:59:23.326Z,102408.80
2022-10-12T06:00:26.183Z,102413.90
2022-10-12T06:01:29.150Z,102416.45
2022-10-12T06:02:32.170Z,102415.17
2022-10-12T06:03:35.433Z,102420.29
2022-10-12T06:04:38.721Z,102419.98
2022-10-12T06:05:41.962Z,102421.09
2022-10-12T06:06:45.002Z,102425.60
2022-10-12T06:07:47.851Z,102425.02
2022-10-12T06:08:50.789Z,102422.47
2022-10-12T06:09:54.352Z,102419.55
2022-10-12T06:10:57.580Z,102419.98
2022-10-12T06:12:00.408Z,102425.39
2022-10-12T06:13:03.304Z,102424.45
2022-10-12T06:14:06.336Z,102426.13
2022-10-12T06:15:09.959Z,102426.85
2022-10-12T06:16:12.896Z,102425.95
2022-10-12T06:17:15.742Z,102428.23
2022-10-12T06:18:19.031Z,102424.75
2022-10-12T06:19:21.935Z,102426.14
2022-10-12T06:20:25.078Z,102428.19
2022-10-12T06:21:33.523Z,102428.27
2022-10-12T06:22:38.032Z,102427.93
2022-10-12T06:23:41.409Z,102425.73
2022-10-12T06:24:50.760Z,102426.19
2022-10-12T06:25:54.011Z,102429.83
2022-10-12T06:26:57.124Z,102425.10
2022-10-12T06:27:59.978Z,102426.93
2022-10-12T06:29:02.760Z,102422.73
2022-10-12T06:30:05.958Z,102426.50
2022-10-12T06:31:09.335Z,102426.91
2022-10-12T06:32:12.159Z,102429.37
2022-10-12T06:33:15.023Z,102426.63
2022-10-12T06:34:18.124Z,102430.70
2022-10-12T06:35:21.023Z,102432.67
2022-10-12T06:36:24.135Z,102435.13
2022-10-12T06:37:48.715Z,102437.10
2022-10-12T06:38:53.171Z,102438.95
2022-10-12T06:39:56.045Z,102438.84
2022-10-12T06:40:58.874Z,102444.51
2022-10-12T06:42:02.240Z,102442.10
2022-10-12T06:43:05.384Z,102441.33
2022-10-12T06:44:08.670Z,102441.34
2022-10-12T06:45:12.054Z,102444.98
2022-10-12T06:46:14.936Z,102443.34
2022-10-12T06:47:17.886Z,102443.34
2022-10-12T06:48:20.709Z,102445.16
2022-10-12T06:49:23.552Z,102443.64
2022-10-12T06:50:26.700Z,102445.76
2022-10-12T06:51:29.619Z,102445.19
2022-10-12T06:52:32.718Z,102445.31
2022-10-12T06:53:36.676Z,102441.68
2022-10-12T06:54:41.340Z,102447.48
2022-10-12T06:55:44.200Z,102446.91
2022-10-12T06:56:47.026Z,102447.48
2022-10-12T06:57:50.198Z,102445.98
2022-10-12T06:58:55.963Z,102446.09
2022-10-12T06:59:58.808Z,102445.54
2022-10-12T07:01:03.010Z,102445.94
2022-10-12T07:02:06.369Z,102443.72
2022-10-12T07:03:12.292Z,102447.65
2022-10-12T07:04:15.501Z,102442.80
2022-10-12T07:05:19.062Z,102443.40
2022-10-12T07:06:21.941Z,102442.58
2022-10-12T07:07:24.779Z,102442.86
2022-10-12T07:08:27.834Z,102441.73
2022-10-12T07:09:30.693Z,102441.95
2022-10-12T07:10:33.570Z,102439.73
2022-10-12T07:11:36.358Z,102444.29
2022-10-12T07:12:39.653Z,102444.60
2022-10-12T07:13:43.257Z,102444.63
2022-10-12T07:14:46.046Z,102447.93
2022-10-12T07:15:50.186Z,102447.35
2022-10-12T07:16:55.267Z,102449.82
2022-10-12T07:17:58.790Z,102448.96
2022-10-12T07:19:02.157Z,102444.06
2022-10-12T07:20:05.679Z,102449.81
2022-10-12T07:21:08.796Z,102449.48
2022-10-12T07:22:11.974Z,102445.67
2022-10-12T07:23:14.786Z,102448.33
2022-10-12T07:24:17.911Z,102446.32
2022-10-12T07:25:22.399Z,102449.05
2022-10-12T07:26:25.211Z,102449.66
2022-10-12T07:27:28.051Z,102449.84
2022-10-12T07:28:31.109Z,102452.00
2022-10-12T07:29:34.831Z,102450.70
2022-10-12T07:30:37.626Z,102449.66
2022-10-12T07:31:42.294Z,102446.46
2022-10-12T07:32:46.414Z,102449.80
2022-10-12T07:33:49.302Z,102450.44
2022-10-12T07:34:52.438Z,102454.06
2022-10-12T07:36:22.284Z,102453.09
2022-10-12T07:37:18.726Z,102452.53
2022-10-12T07:38:21.608Z,102454.48
2022-10-12T07:39:24.936Z,102458.23
2022-10-12T07:40:27.941Z,102457.73
2022-10-12T07:41:30.892Z,102456.08
2022-10-12T07:42:33.755Z,102458.84
2022-10-12T07:43:36.568Z,102457.23
2022-10-12T07:44:39.489Z,102456.06
2022-10-12T07:45:43.922Z,102456.11
2022-10-12T07:46:46.802Z,102458.64
2022-10-12T07:47:49.567Z,102454.65
2022-10-12T07:48:52.433Z,102452.34
2022-10-12T07:49:55.319Z,102452.91
2022-10-12T07:51:04.939Z,102455.77
2022-10-12T07:52:07.698Z,102452.71
2022-10-12T07:53:10.554Z,102453.71
2022-10-12T07:54:18.988Z,102456.33
2022-10-12T07:55:23.602Z,102457.63
2022-10-12T07:56:26.979Z,102463.00
2022-10-12T07:57:29.879Z,102457.33
2022-10-12T07:58:33.239Z,102458.95
2022-10-12T07:59:36.240Z,102459.33
2022-10-12T08:00:39.262Z,102458.39
2022-10-12T08:01:42.370Z,102460.01
2022-10-12T08:02:45.293Z,102454.91
2022-10-12T08:03:48.943Z,102457.63
2022-10-12T08:04:52.102Z,102457.64
2022-10-12T08:05:54.920Z,102453.38
2022-10-12T08:06:59.657Z,102456.06
2022-10-12T08:08:02.563Z,102457.70
2022-10-12T08:09:05.399Z,102456.30
2022-10-12T08:10:08.267Z,102458.04
2022-10-12T08:11:12.096Z,102463.56
2022-10-12T08:12:15.538Z,102461.29
2022-10-12T08:13:18.299Z,102459.71
2022-10-12T08:14:21.261Z,102459.15
2022-10-12T08:15:24.087Z,102457.73
2022-10-12T08:16:27.207Z,102454.42
2022-10-12T08:17:30.315Z,102456.20
2022-10-12T08:18:33.119Z,102454.95
2022-10-12T08:19:36.547Z,102454.27
2022-10-12T08:20:39.468Z,102450.10
2022-10-12T08:21:42.927Z,102454.83
2022-10-12T08:22:46.270Z,102447.75
2022-10-12T08:23:50.481Z,102452.52
2022-10-12T08:24:53.476Z,102447.23
2022-10-12T08:25:56.645Z,102448.98
2022-10-12T08:27:01.525Z,102449.75
2022-10-12T08:28:05.441Z,102446.00
2022-10-12T08:29:08.675Z,102442.86
2022-10-12T08:30:11.927Z,102448.91
2022-10-12T08:31:17.513Z,102447.52
2022-10-12T08:32:20.798Z,102452.88
2022-10-12T08:33:24.078Z,102445.57
2022-10-12T08:34:26.831Z,102450.67
2022-10-12T08:35:29.646Z,102445.03
2022-10-12T08:36:32.778Z,102450.83
2022-10-12T08:37:36.211Z,102449.16
2022-10-12T08:38:39.669Z,102446.18
2022-10-12T08:39:42.893Z,102445.02
2022-10-12T08:40:54.713Z,102445.45
2022-10-12T08:42:13.269Z,102447.16
2022-10-12T08:43:28.295Z,102446.45
2022-10-12T08:44:34.520Z,102448.66
2022-10-12T08:45:40.429Z,102444.31
2022-10-12T08:46:43.407Z,102449.71
2022-10-12T08:47:48.142Z,102445.27
2022-10-12T08:48:50.970Z,102447.10
2022-10-12T08:49:54.176Z,102441.94
2022-10-12T08:51:05.126Z,102445.70
2022-10-12T08:52:14.083Z,102442.16
2022-10-12T08:53:22.868Z,102443.66
2022-10-12T08:54:29.662Z,102443.95
2022-10-12T08:55:35.963Z,102443.13
2022-10-12T08:56:41.298Z,102445.36
2022-10-12T08:57:49.059Z,102444.20
2022-10-12T08:58:53.628Z,102443.36
2022-10-12T08:59:56.546Z,102446.11
2022-10-12T09:01:15.595Z,102443.25
2022-10-12T09:02:31.944Z,102443.98
2022-10-12T09:03:38.507Z,102437.66
2022-10-12T09:04:44.274Z,102451.43
2022-10-12T09:05:53.894Z,102444.27
2022-10-12T09:07:16.113Z,102451.98
2022-10-12T09:08:25.382Z,102452.31
2022-10-12T09:09:44.188Z,102454.30
2022-10-12T09:10:51.437Z,102450.68
2022-10-12T09:11:54.207Z,102451.21
2022-10-12T09:13:15.988Z,102451.34
2022-10-12T09:14:24.916Z,102455.27
2022-10-12T09:15:37.381Z,102455.50
2022-10-12T09:16:43.069Z,102450.82
2022-10-12T09:17:51.359Z,102455.97
2022-10-12T09:19:01.256Z,102453.89
2022-10-12T09:20:06.949Z,102452.98
2022-10-12T09:21:13.834Z,102450.59
2022-10-12T09:22:20.190Z,102451.42
2022-10-12T09:23:25.434Z,102450.23
2022-10-12T09:24:32.259Z,102452.15
2022-10-12T09:25:35.764Z,102456.30
2022-10-12T09:26:40.067Z,102455.02
2022-10-12T09:27:47.906Z,102456.05
2022-10-12T09:28:52.047Z,102454.73
2022-10-12T09:29:57.752Z,102455.80
2022-10-12T09:31:11.177Z,102459.98
2022-10-12T09:32:49.460Z,102454.84
2022-10-12T09:33:55.652Z,102460.62
2022-10-12T09:34:59.753Z,102459.27
2022-10-12T09:36:02.591Z,102459.70
2022-10-12T09:37:07.121Z,102458.85
2022-10-12T09:38:10.289Z,102455.73
2022-10-12T09:39:16.035Z,102456.65
2022-10-12T09:40:22.715Z,102455.19
2022-10-12T09:41:55.682Z,102457.53
2022-10-12T09:43:00.390Z,102457.35
2022-10-12T09:44:04.339Z,102458.30
2022-10-12T09:45:19.052Z,102464.30
2022-10-12T09:46:28.057Z,102458.26
2022-10-12T09:47:31.938Z,102460.63
2022-10-12T09:48:35.153Z,102458.33
2022-10-12T09:49:45.629Z,102459.17
2022-10-12T09:50:56.158Z,102458.96
2022-10-12T09:52:00.319Z,102462.45
2022-10-12T09:53:12.136Z,102460.14
2022-10-12T09:54:18.834Z,102464.94
2022-10-12T09:56:41.155Z,102464.17
2022-10-12T09:57:51.810Z,102465.27
2022-10-12T09:58:56.888Z,102463.84
2022-10-12T10:00:00.762Z,102462.95
2022-10-12T10:01:16.605Z,102461.16
2022-10-12T10:02:20.857Z,102462.02
2022-10-12T10:03:29.254Z,102464.77
2022-10-12T10:04:34.615Z,102470.10
2022-10-12T10:05:38.529Z,102464.27
2022-10-12T10:06:43.094Z,102465.77
2022-10-12T10:07:45.956Z,102467.16
2022-10-12T10:08:49.086Z,102469.61
2022-10-12T10:10:13.494Z,102466.31
2022-10-12T10:11:21.259Z,102467.10
2022-10-12T10:12:26.997Z,102464.44
2022-10-12T10:13:31.709Z,102463.85
2022-10-12T10:14:35.736Z,102466.94
2022-10-12T10:15:39.264Z,102469.40
2022-10-12T10:16:52.447Z,102468.14
2022-10-12T10:18:01.663Z,102462.68
2022-10-12T10:19:04.489Z,102469.63
2022-10-12T10:20:22.022Z,102466.21
2022-10-12T10:21:35.240Z,102468.61
2022-10-12T10:22:47.060Z,102465.26
2022-10-12T10:24:00.751Z,102465.55
2022-10-12T10:25:03.797Z,102466.23
2022-10-12T10:26:12.677Z,102467.70
2022-10-12T10:27:28.248Z,102459.23
2022-10-12T10:28:32.303Z,102456.20
2022-10-12T10:29:36.770Z,102458.70
2022-10-12T10:30:41.354Z,102453.46
2022-10-12T10:31:46.567Z,102453.12
2022-10-12T10:32:49.715Z,102457.29
2022-10-12T10:34:07.723Z,102457.81
2022-10-12T10:35:13.734Z,102453.94
2022-10-12T10:36:22.325Z,102456.10
2022-10-12T10:37:25.780Z,102455.49
2022-10-12T10:38:31.350Z,102453.98
2022-10-12T10:39:45.760Z,102455.05
2022-10-12T10:40:57.004Z,102452.45
2022-10-12T10:42:10.371Z,102459.20
2022-10-12T10:43:19.242Z,102455.27
2022-10-12T10:44:28.312Z,102456.50
2022-10-12T10:45:37.159Z,102453.67
2022-10-12T10:46:40.262Z,102454.11
2022-10-12T10:47:46.520Z,102458.13
2022-10-12T10:48:56.335Z,102454.00
2022-10-12T10:50:00.982Z,102455.36
2022-10-12T10:51:05.127Z,102457.05
2022-10-12T10:52:19.932Z,102454.61
2022-10-12T10:53:24.755Z,102452.25
2022-10-12T10:54:31.779Z,102455.23
2022-10-12T10:55:44.107Z,102457.17
2022-10-12T10:56:47.377Z,102451.55
2022-10-12T10:57:59.546Z,102458.75
2022-10-12T10:59:12.819Z,102459.31
2022-10-12T11:00:38.037Z,102461.31
2022-10-12T11:01:53.856Z,102460.89
2022-10-12T11:02:58.811Z,102463.23
2022-10-12T11:04:07.314Z,102464.42
2022-10-12T11:05:18.240Z,102469.05
2022-10-12T11:06:33.636Z,102466.24
2022-10-12T11:07:42.920Z,102468.84
2022-10-12T11:08:46.805Z,102466.64
2022-10-12T11:09:53.769Z,102469.14
2022-10-12T11:10:59.187Z,102469.51
2022-10-12T11:12:11.082Z,102471.70
2022-10-12T11:13:22.760Z,102468.72
2022-10-12T11:14:29.094Z,102468.70
2022-10-12T11:15:44.314Z,102468.83
2022-10-12T11:16:47.123Z,102467.20
2022-10-12T11:17:57.876Z,102463.16
2022-10-12T11:19:13.954Z,102462.45
2022-10-12T11:20:23.084Z,102464.09
2022-10-12T11:21:45.208Z,102466.70
2022-10-12T11:22:50.988Z,102465.96
2022-10-12T11:23:56.927Z,102464.91
2022-10-12T11:25:07.387Z,102464.84
2022-10-12T11:26:30.100Z,102460.10
2022-10-12T11:27:36.162Z,102461.86
2022-10-12T11:28:40.468Z,102462.48
2022-10-12T11:29:43.691Z,102461.83
2022-10-12T11:30:49.828Z,102459.09
2022-10-12T11:32:03.341Z,102467.45
2022-10-12T11:33:10.376Z,102464.24
2022-10-12T11:34:16.924Z,102464.14
2022-10-12T11:35:41.266Z,102461.90
2022-10-12T11:37:07.492Z,102462.13
2022-10-12T11:38:15.540Z,102459.80
2022-10-12T11:39:32.984Z,102459.52
2022-10-12T11:41:05.695Z,102460.48
2022-10-12T11:42:22.284Z,102455.89
2022-10-12T11:43:29.581Z,102461.63
2022-10-12T11:44:35.682Z,102454.14
2022-10-12T11:45:41.906Z,102452.70
2022-10-12T11:46:52.764Z,102449.54
2022-10-12T11:47:58.877Z,102456.55
2022-10-12T11:49:06.307Z,102453.48
2022-10-12T11:50:18.464Z,102451.98
2022-10-12T11:51:21.596Z,102453.92
2022-10-12T11:52:28.905Z,102452.92
2022-10-12T11:53:40.551Z,102452.80
2022-10-12T11:54:49.742Z,102452.45
2022-10-12T11:55:55.336Z,102449.78
2022-10-12T11:57:01.948Z,102447.95
2022-10-12T11:58:13.538Z,102449.42
2022-10-12T11:59:24.836Z,102450.71
2022-10-12T12:00:42.324Z,102448.85
2022-10-12T12:01:45.128Z,102447.31
2022-10-12T12:03:03.207Z,102449.05
2022-10-12T12:04:39.870Z,102449.46
2022-10-12T12:05:37.888Z,102449.66
2022-10-12T12:06:48.654Z,102453.79
2022-10-12T12:07:54.285Z,102454.16
2022-10-12T12:09:00.257Z,102457.73
2022-10-12T12:10:23.278Z,102452.79
2022-10-12T12:11:27.723Z,102458.34
2022-10-12T12:12:30.823Z,102456.79
2022-10-12T12:13:33.978Z,102457.17
2022-10-12T12:14:37.726Z,102456.05
2022-10-12T12:15:42.295Z,102459.02
2022-10-12T12:16:45.273Z,102457.02
2022-10-12T12:18:04.844Z,102460.40
2022-10-12T12:19:26.949Z,102459.50
2022-10-12T12:20:42.687Z,102456.67
2022-10-12T12:22:04.605Z,102457.87
2022-10-12T12:23:18.800Z,102453.88
2022-10-12T12:24:23.500Z,102458.61
2022-10-12T12:25:32.898Z,102455.61
2022-10-12T12:26:35.715Z,102456.48
2022-10-12T12:27:43.445Z,102461.80
2022-10-12T12:29:08.171Z,102457.31
2022-10-12T12:30:20.910Z,102456.41
2022-10-12T12:31:23.713Z,102460.80
2022-10-12T12:32:27.351Z,102461.70
2022-10-12T12:33:41.886Z,102462.98
2022-10-12T12:35:02.790Z,102460.20
2022-10-12T12:36:07.740Z,102451.52
2022-10-12T12:37:12.245Z,102452.79